createdAt,value
2023-01-30T00:01:27.003Z,-3275.60
2023-01-30T00:03:55.607Z,-3275.70
2023-01-30T00:06:24.699Z,-3275.70
2023-01-30T00:08:53.034Z,-3275.70
2023-01-30T00:11:21.877Z,-3275.70
2023-01-30T00:13:51.183Z,-3275.80
2023-01-30T00:16:20.848Z,-3275.80
2023-01-30T00:18:48.976Z,-3275.80
2023-01-30T00:21:17.344Z,-3275.80
2023-01-30T00:23:46.114Z,-3275.80
2023-01-30T00:26:14.788Z,-3275.80
2023-01-30T00:28:43.031Z,-3275.70
2023-01-30T00:31:11.210Z,-3275.70
2023-01-30T00:33:40.739Z,-3275.70
2023-01-30T00:36:10.511Z,-3275.70
2023-01-30T00:38:38.825Z,-3275.70
2023-01-30T00:41:06.971Z,-3275.70
2023-01-30T00:43:52.869Z,-3275.70
2023-01-30T00:46:46.625Z,-3275.80
2023-01-30T00:49:16.193Z,-3275.70
2023-01-30T00:51:44.458Z,-3275.60
2023-01-30T00:54:12.982Z,-3275.60
2023-01-30T00:56:41.134Z,-3275.60
2023-01-30T00:59:09.278Z,-3275.50
2023-01-30T01:01:38.789Z,-3275.40
2023-01-30T01:04:08.860Z,-3275.40
2023-01-30T01:06:38.420Z,-3275.50
2023-01-30T01:09:07.040Z,-3275.50
2023-01-30T01:11:35.512Z,-3275.60
2023-01-30T01:14:05.418Z,-3275.60
2023-01-30T01:16:34.916Z,-3275.60
2023-01-30T01:19:03.380Z,-3275.60
2023-01-30T01:21:31.558Z,-3275.70
2023-01-30T01:24:01.717Z,-3275.70
2023-01-30T01:26:30.164Z,-3275.70
2023-01-30T01:28:59.509Z,-3275.70
2023-01-30T01:31:28.066Z,-3275.70
2023-01-30T01:33:56.435Z,-3275.70
2023-01-30T01:36:51.791Z,-3275.70
2023-01-30T01:39:14.427Z,-3275.60
2023-01-30T01:41:41.592Z,-3275.60
2023-01-30T01:44:11.556Z,-3275.50
2023-01-30T01:46:43.474Z,-3275.20
2023-01-30T01:49:18.146Z,-3275.30
2023-01-30T01:51:53.226Z,-3275.20
2023-01-30T01:54:27.436Z,-3275.00
2023-01-30T01:56:55.755Z,-3275.20
2023-01-30T01:59:30.090Z,-3275.30
2023-01-30T02:02:05.676Z,-3275.40
2023-01-30T02:04:55.034Z,-3275.40
2023-01-30T02:07:28.613Z,-3275.20
2023-01-30T02:10:05.743Z,-3275.30
2023-01-30T02:12:35.745Z,-3275.40
2023-01-30T02:15:07.477Z,-3275.50
2023-01-30T02:17:36.987Z,-3275.40
2023-01-30T02:20:12.338Z,-3275.50
2023-01-30T02:23:19.332Z,-3275.50
2023-01-30T02:26:29.718Z,-3275.40
2023-01-30T02:29:43.397Z,-3275.20
2023-01-30T02:32:23.068Z,-3275.10
2023-01-30T02:35:00.632Z,-3275.20
2023-01-30T02:37:40.637Z,-3275.20
2023-01-30T02:40:40.717Z,-3275.30
2023-01-30T02:43:19.977Z,-3275.40
2023-01-30T02:45:56.026Z,-3275.50
2023-01-30T02:48:36.903Z,-3275.50
2023-01-30T02:51:11.557Z,-3275.40
2023-01-30T02:53:47.365Z,-3275.40
2023-01-30T02:56:20.968Z,-3275.50
2023-01-30T02:58:56.066Z,-3275.50
2023-01-30T03:02:05.535Z,-3275.50
2023-01-30T03:05:02.607Z,-3275.60
2023-01-30T03:07:46.131Z,-3275.50
2023-01-30T03:10:26.331Z,-3275.50
2023-01-30T03:13:07.124Z,-3275.50
2023-01-30T03:15:43.416Z,-3275.50
2023-01-30T03:18:15.714Z,-3275.40
2023-01-30T03:20:51.058Z,-3275.40
2023-01-30T03:23:21.742Z,-3275.30
2023-01-30T03:25:50.983Z,-3275.30
2023-01-30T03:28:22.296Z,-3275.30
2023-01-30T03:33:37.205Z,-3275.10
2023-01-30T03:36:12.837Z,-3275.00
2023-01-30T03:38:43.596Z,-3275.00
2023-01-30T03:41:13.563Z,-3275.00
2023-01-30T03:43:43.184Z,-3275.00
2023-01-30T03:46:12.390Z,-3275.10
2023-01-30T03:48:44.383Z,-3275.00
2023-01-30T03:51:14.294Z,-3274.80
2023-01-30T03:53:46.080Z,-3275.00
2023-01-30T03:56:17.544Z,-3275.00
2023-01-30T03:58:46.970Z,-3275.00
2023-01-30T04:01:18.743Z,-3275.00
2023-01-30T04:03:52.802Z,-3275.10
2023-01-30T04:06:24.176Z,-3275.20
2023-01-30T04:08:56.811Z,-3275.20
2023-01-30T04:11:30.604Z,-3275.10
2023-01-30T04:14:06.111Z,-3275.10
2023-01-30T04:16:38.330Z,-3275.10
2023-01-30T04:19:08.836Z,-3275.10
2023-01-30T04:21:40.746Z,-3275.10
2023-01-30T04:24:09.307Z,-3275.10
2023-01-30T04:26:38.644Z,-3275.10
2023-01-30T04:29:10.825Z,-3275.10
2023-01-30T04:31:41.401Z,-3275.10
2023-01-30T04:34:12.262Z,-3275.00
2023-01-30T04:36:43.062Z,-3275.00
2023-01-30T04:39:12.757Z,-3275.10
2023-01-30T04:41:43.407Z,-3275.10
2023-01-30T04:44:11.845Z,-3275.00
2023-01-30T04:46:42.361Z,-3274.80
2023-01-30T04:49:13.565Z,-3274.90
2023-01-30T04:51:45.874Z,-3275.00
2023-01-30T04:54:14.144Z,-3275.00
2023-01-30T04:56:44.409Z,-3274.90
2023-01-30T04:59:16.418Z,-3274.80
2023-01-30T05:01:44.826Z,-3274.80
2023-01-30T05:04:23.033Z,-3275.00
2023-01-30T05:06:53.832Z,-3275.00
2023-01-30T05:09:23.219Z,-3275.00
2023-01-30T05:11:52.459Z,-3275.00
2023-01-30T05:14:25.496Z,-3275.10
2023-01-30T05:16:55.032Z,-3275.20
2023-01-30T05:19:25.281Z,-3275.20
2023-01-30T05:21:55.949Z,-3275.10
2023-01-30T05:24:24.238Z,-3275.00
2023-01-30T05:26:55.599Z,-3275.10
2023-01-30T05:29:23.871Z,-3275.20
2023-01-30T05:31:52.839Z,-3275.10
2023-01-30T05:34:21.112Z,-3275.20
2023-01-30T05:36:50.327Z,-3275.20
2023-01-30T05:39:24.302Z,-3275.20
2023-01-30T05:41:55.858Z,-3275.30
2023-01-30T05:44:26.379Z,-3275.20
2023-01-30T05:47:11.615Z,-3275.30
2023-01-30T05:49:40.827Z,-3275.00
2023-01-30T05:52:09.435Z,-3275.00
2023-01-30T05:54:38.936Z,-3275.10
2023-01-30T05:57:07.249Z,-3275.20
2023-01-30T05:59:35.468Z,-3275.20
2023-01-30T06:02:05.099Z,-3275.00
2023-01-30T06:04:33.271Z,-3275.10
2023-01-30T06:07:01.414Z,-3275.10
2023-01-30T06:09:30.754Z,-3275.00
2023-01-30T06:12:01.286Z,-3275.00
2023-01-30T06:14:30.818Z,-3275.00
2023-01-30T06:16:59.028Z,-3274.90
2023-01-30T06:19:31.296Z,-3275.00
2023-01-30T06:22:00.906Z,-3275.10
2023-01-30T06:24:30.632Z,-3275.10
2023-01-30T06:27:01.891Z,-3275.10
2023-01-30T06:29:30.739Z,-3275.10
2023-01-30T06:32:02.531Z,-3275.20
2023-01-30T06:34:31.973Z,-3275.30
2023-01-30T06:37:04.036Z,-3275.40
2023-01-30T06:39:35.398Z,-3275.50
2023-01-30T06:42:07.219Z,-3275.50
2023-01-30T06:44:36.940Z,-3275.50
2023-01-30T06:47:06.367Z,-3275.70
2023-01-30T06:49:35.658Z,-3275.70
2023-01-30T06:52:05.161Z,-3275.90
2023-01-30T06:54:37.327Z,-3276.00
2023-01-30T06:57:08.101Z,-3276.10
2023-01-30T06:59:36.670Z,-3276.10
2023-01-30T07:02:07.520Z,-3276.00
2023-01-30T07:04:36.950Z,-3276.00
2023-01-30T07:07:07.035Z,-3276.00
2023-01-30T07:09:36.635Z,-3276.10
2023-01-30T07:12:11.250Z,-3276.10
2023-01-30T07:14:42.840Z,-3276.10
2023-01-30T07:17:12.534Z,-3276.10
2023-01-30T07:19:42.015Z,-3276.10
2023-01-30T07:22:19.426Z,-3276.10
2023-01-30T07:24:48.810Z,-3276.10
2023-01-30T07:27:23.160Z,-3276.10
2023-01-30T07:29:55.320Z,-3276.10
2023-01-30T07:32:32.209Z,-3276.00
2023-01-30T07:35:04.874Z,-3276.00
2023-01-30T07:37:35.199Z,-3276.10
2023-01-30T07:40:05.105Z,-3276.10
2023-01-30T07:42:37.610Z,-3276.20
2023-01-30T07:45:06.426Z,-3276.10
2023-01-30T07:47:34.641Z,-3276.20
2023-01-30T07:50:03.152Z,-3276.20
2023-01-30T07:52:31.363Z,-3276.20
2023-01-30T07:55:01.398Z,-3276.30
2023-01-30T07:57:30.966Z,-3276.30
2023-01-30T08:00:00.545Z,-3276.40
2023-01-30T08:02:28.813Z,-3276.50
2023-01-30T08:04:57.169Z,-3276.70
2023-01-30T08:07:25.399Z,0.00
2023-01-30T08:09:53.696Z,-3276.70
2023-01-30T08:12:21.905Z,-3276.60
2023-01-30T08:14:50.084Z,0.00
2023-01-30T08:17:19.829Z,0.20
2023-01-30T08:19:47.966Z,0.40
2023-01-30T08:22:16.379Z,0.50
2023-01-30T08:24:44.608Z,0.60
2023-01-30T08:27:12.820Z,0.60
2023-01-30T08:29:40.989Z,0.60
2023-01-30T08:32:09.261Z,0.70
2023-01-30T08:34:38.785Z,0.60
2023-01-30T08:37:06.969Z,0.70
2023-01-30T08:39:37.149Z,0.70
2023-01-30T08:42:05.592Z,0.80
2023-01-30T08:44:33.740Z,0.90
2023-01-30T08:47:01.845Z,1.00
2023-01-30T08:49:30.010Z,1.10
2023-01-30T08:51:59.525Z,1.20
2023-01-30T08:54:27.688Z,1.30
2023-01-30T08:56:55.825Z,1.40
2023-01-30T08:59:24.020Z,1.60
2023-01-30T09:01:52.721Z,1.60
2023-01-30T09:04:21.152Z,1.70
2023-01-30T09:06:49.376Z,1.80
2023-01-30T09:09:19.270Z,1.90
2023-01-30T09:11:48.234Z,2.00
2023-01-30T09:14:19.744Z,2.20
2023-01-30T09:16:48.268Z,2.30
2023-01-30T09:19:16.541Z,2.40
2023-01-30T09:21:44.682Z,2.50
2023-01-30T09:24:12.774Z,2.60
2023-01-30T09:26:44.938Z,2.70
2023-01-30T09:29:13.406Z,2.60
2023-01-30T09:31:41.911Z,2.60
2023-01-30T09:34:10.139Z,2.60
2023-01-30T09:36:38.279Z,2.60
2023-01-30T09:39:06.441Z,2.80
2023-01-30T09:41:53.573Z,2.90
2023-01-30T09:44:56.970Z,2.90
2023-01-30T09:47:36.187Z,3.00
2023-01-30T09:50:20.906Z,3.10
2023-01-30T09:52:57.682Z,3.20
2023-01-30T09:55:29.246Z,3.10
2023-01-30T09:58:01.039Z,3.20
2023-01-30T10:00:33.659Z,3.10
2023-01-30T10:03:10.752Z,3.00
2023-01-30T10:05:43.596Z,3.10
2023-01-30T10:08:41.605Z,3.30
2023-01-30T10:11:19.270Z,3.20
2023-01-30T10:14:15.139Z,3.20
2023-01-30T10:16:49.455Z,3.30
2023-01-30T10:19:45.001Z,3.50
2023-01-30T10:22:26.922Z,3.50
2023-01-30T10:25:05.974Z,3.50
2023-01-30T10:27:37.612Z,3.60
2023-01-30T10:30:15.675Z,3.60
2023-01-30T10:32:48.350Z,3.70
2023-01-30T10:35:21.435Z,3.60
2023-01-30T10:37:57.157Z,3.50
2023-01-30T10:40:29.625Z,3.50
2023-01-30T10:43:04.683Z,3.70
2023-01-30T10:45:44.513Z,3.60
2023-01-30T10:48:42.461Z,3.60
2023-01-30T10:51:24.171Z,3.80
2023-01-30T10:53:58.139Z,3.90
2023-01-30T10:56:35.798Z,3.90
2023-01-30T10:59:17.225Z,3.90
2023-01-30T11:01:53.595Z,4.10
2023-01-30T11:04:30.467Z,4.20
2023-01-30T11:07:00.379Z,4.30
2023-01-30T11:09:39.962Z,4.40
2023-01-30T11:12:08.625Z,4.40
2023-01-30T11:15:01.334Z,4.40
2023-01-30T11:17:37.341Z,4.50
2023-01-30T11:20:15.378Z,4.50
2023-01-30T11:22:48.793Z,4.50
2023-01-30T11:25:19.777Z,4.50
2023-01-30T11:27:55.032Z,4.50
2023-01-30T11:30:27.862Z,4.50
2023-01-30T11:33:11.597Z,4.50
2023-01-30T11:35:45.204Z,4.70
2023-01-30T11:38:21.739Z,4.70
2023-01-30T11:40:49.883Z,4.80
2023-01-30T11:43:17.979Z,4.80
2023-01-30T11:45:49.993Z,4.80
2023-01-30T11:48:34.074Z,4.90
2023-01-30T11:51:12.084Z,4.80
2023-01-30T11:53:43.068Z,4.90
2023-01-30T11:56:18.145Z,5.10
2023-01-30T11:58:50.040Z,5.10
2023-01-30T12:01:18.510Z,5.30
2023-01-30T12:03:51.178Z,5.30
2023-01-30T12:06:24.174Z,5.30
2023-01-30T12:08:58.043Z,5.50
2023-01-30T12:11:29.680Z,5.60
2023-01-30T12:14:09.283Z,5.80
2023-01-30T12:17:08.663Z,5.80
2023-01-30T12:19:50.412Z,5.60
2023-01-30T12:22:25.542Z,5.60
2023-01-30T12:25:00.020Z,5.50
2023-01-30T12:27:44.711Z,5.70
2023-01-30T12:30:25.205Z,5.70
2023-01-30T12:32:58.748Z,5.80
2023-01-30T12:35:38.421Z,5.70
2023-01-30T12:38:15.345Z,5.80
2023-01-30T12:40:51.911Z,5.90
2023-01-30T12:43:42.805Z,6.00
2023-01-30T12:46:27.133Z,6.10
2023-01-30T12:49:34.245Z,6.30
2023-01-30T12:52:21.009Z,6.50
2023-01-30T12:54:58.606Z,6.60
2023-01-30T12:57:33.948Z,6.50
2023-01-30T13:00:20.732Z,6.40
2023-01-30T13:03:03.303Z,6.60
2023-01-30T13:05:40.409Z,6.70
2023-01-30T13:08:23.308Z,6.30
2023-01-30T13:11:00.063Z,6.20
2023-01-30T13:13:35.861Z,6.30
2023-01-30T13:16:10.613Z,6.60
2023-01-30T13:18:44.120Z,6.80
2023-01-30T13:21:19.095Z,6.90
2023-01-30T13:24:04.537Z,6.80
2023-01-30T13:26:36.042Z,7.00
2023-01-30T13:29:13.122Z,7.00
2023-01-30T13:31:50.772Z,6.80
2023-01-30T13:34:26.158Z,6.60
2023-01-30T13:36:59.027Z,6.70
2023-01-30T13:39:36.328Z,6.60
2023-01-30T13:42:21.088Z,6.50
2023-01-30T13:44:51.419Z,6.50
2023-01-30T13:47:36.742Z,6.50
2023-01-30T13:50:20.913Z,6.40
2023-01-30T13:52:55.682Z,6.30
2023-01-30T13:55:33.337Z,6.30
2023-01-30T13:58:11.740Z,6.30
2023-01-30T14:00:40.008Z,6.20
2023-01-30T14:03:30.540Z,6.10
2023-01-30T14:06:12.957Z,6.10
2023-01-30T14:08:53.539Z,6.10
2023-01-30T14:11:38.672Z,6.10
2023-01-30T14:14:24.242Z,5.90
2023-01-30T14:16:55.289Z,5.80
2023-01-30T14:19:41.473Z,6.00
2023-01-30T14:22:24.178Z,6.00
2023-01-30T14:25:45.989Z,6.00
2023-01-30T14:28:45.513Z,5.80
2023-01-30T14:31:33.858Z,5.50
2023-01-30T14:34:03.462Z,5.60
2023-01-30T14:36:37.204Z,5.70
2023-01-30T14:39:39.999Z,5.70
2023-01-30T14:42:21.422Z,5.80
2023-01-30T14:45:01.180Z,5.80
2023-01-30T14:47:35.238Z,5.90
2023-01-30T14:50:22.410Z,5.80
2023-01-30T14:52:55.787Z,5.80
2023-01-30T14:55:29.457Z,5.80
2023-01-30T14:58:01.548Z,5.60
2023-01-30T15:00:32.727Z,5.70
2023-01-30T15:03:03.450Z,5.70
2023-01-30T15:05:40.264Z,5.80
2023-01-30T15:08:13.571Z,5.70
2023-01-30T15:11:09.738Z,5.60
2023-01-30T15:13:49.764Z,5.60
2023-01-30T15:16:45.209Z,5.70
2023-01-30T15:19:41.145Z,5.70
2023-01-30T15:22:20.271Z,5.60
2023-01-30T15:25:20.324Z,5.60
2023-01-30T15:28:03.139Z,5.60
2023-01-30T15:30:46.367Z,5.60
2023-01-30T15:33:29.946Z,5.60
2023-01-30T15:35:59.715Z,5.60
2023-01-30T15:38:31.869Z,5.70
2023-01-30T15:41:03.295Z,5.60
2023-01-30T15:44:02.287Z,5.60
2023-01-30T15:46:38.997Z,5.60
2023-01-30T15:49:23.860Z,5.50
2023-01-30T15:51:53.806Z,5.40
2023-01-30T15:54:25.632Z,5.40
2023-01-30T15:56:54.812Z,5.40
2023-01-30T15:59:31.710Z,5.40
2023-01-30T16:02:01.981Z,5.30
2023-01-30T16:04:30.912Z,5.30
2023-01-30T16:06:59.110Z,5.40
2023-01-30T16:09:28.627Z,5.30
2023-01-30T16:11:56.860Z,5.00
2023-01-30T16:14:25.169Z,4.80
2023-01-30T16:16:58.835Z,4.80
2023-01-30T16:19:30.254Z,4.60
2023-01-30T16:22:02.658Z,4.50
2023-01-30T16:24:33.823Z,4.40
2023-01-30T16:27:05.967Z,4.40
2023-01-30T16:29:36.989Z,4.40
2023-01-30T16:32:13.448Z,4.40
2023-01-30T16:34:42.157Z,4.30
2023-01-30T16:37:26.896Z,4.30
2023-01-30T16:40:13.728Z,4.40
2023-01-30T16:42:42.270Z,4.40
2023-01-30T16:46:03.817Z,4.40
2023-01-30T16:48:35.318Z,4.50
2023-01-30T16:51:18.695Z,4.50
2023-01-30T16:53:56.682Z,4.50
2023-01-30T16:56:26.848Z,4.60
2023-01-30T16:58:58.056Z,4.70
2023-01-30T17:01:37.728Z,4.70
2023-01-30T17:04:09.274Z,4.70
2023-01-30T17:06:39.845Z,4.70
2023-01-30T17:09:29.352Z,4.60
2023-01-30T17:11:58.860Z,4.70
2023-01-30T17:14:30.647Z,4.80
2023-01-30T17:17:02.935Z,4.80
2023-01-30T17:19:31.492Z,4.80
2023-01-30T17:22:00.809Z,4.60
2023-01-30T17:24:29.239Z,4.60
2023-01-30T17:27:02.608Z,4.60
2023-01-30T17:29:42.701Z,4.60
2023-01-30T17:32:13.121Z,4.60
2023-01-30T17:34:41.708Z,4.70
2023-01-30T17:37:15.091Z,4.60
2023-01-30T17:39:43.292Z,4.40
2023-01-30T17:42:13.723Z,4.30
2023-01-30T17:44:42.167Z,4.40
2023-01-30T17:47:12.422Z,4.40
2023-01-30T17:49:41.022Z,4.40
2023-01-30T17:52:09.345Z,4.50
2023-01-30T17:54:37.552Z,4.60
2023-01-30T17:57:09.702Z,4.60
2023-01-30T17:59:39.225Z,4.60
2023-01-30T18:02:10.439Z,4.60
2023-01-30T18:04:40.055Z,4.60
2023-01-30T18:07:12.709Z,4.70
2023-01-30T18:09:40.954Z,4.70
2023-01-30T18:12:09.197Z,4.70
2023-01-30T18:14:38.691Z,4.60
2023-01-30T18:17:06.841Z,4.70
2023-01-30T18:19:34.990Z,4.60
2023-01-30T18:22:03.167Z,4.60
2023-01-30T18:24:31.427Z,4.50
2023-01-30T18:27:01.753Z,4.50
2023-01-30T18:29:30.229Z,4.40
2023-01-30T18:32:05.012Z,4.60
2023-01-30T18:34:33.588Z,4.50
2023-01-30T18:37:01.799Z,4.40
2023-01-30T18:39:32.334Z,4.50
2023-01-30T18:42:02.456Z,4.50
2023-01-30T18:44:30.657Z,4.60
2023-01-30T18:47:00.188Z,4.60
2023-01-30T18:49:28.431Z,4.70
2023-01-30T18:51:56.590Z,4.70
2023-01-30T18:54:24.713Z,4.70
2023-01-30T18:56:52.860Z,4.50
2023-01-30T18:59:21.096Z,4.40
2023-01-30T19:01:49.254Z,4.60
2023-01-30T19:04:18.832Z,4.50
2023-01-30T19:06:47.047Z,4.50
2023-01-30T19:09:17.345Z,4.50
2023-01-30T19:12:03.193Z,4.60
2023-01-30T19:14:31.365Z,4.60
2023-01-30T19:16:59.555Z,4.60
2023-01-30T19:19:29.130Z,4.70
2023-01-30T19:21:57.323Z,4.70
2023-01-30T19:24:25.938Z,4.80
2023-01-30T19:26:54.158Z,4.70
2023-01-30T19:29:22.489Z,4.70
2023-01-30T19:31:50.759Z,4.80
2023-01-30T19:34:19.694Z,4.80
2023-01-30T19:36:49.435Z,4.80
2023-01-30T19:39:17.723Z,4.80
2023-01-30T19:41:45.899Z,4.80
2023-01-30T19:44:14.301Z,4.80
2023-01-30T19:46:43.250Z,4.60
2023-01-30T19:49:12.930Z,4.70
2023-01-30T19:51:41.890Z,4.70
2023-01-30T19:54:12.989Z,4.80
2023-01-30T19:56:42.569Z,4.80
2023-01-30T19:59:14.227Z,4.80
2023-01-30T20:01:42.640Z,4.60
2023-01-30T20:04:11.063Z,4.60
2023-01-30T20:06:39.680Z,4.60
2023-01-30T20:09:09.840Z,4.60
2023-01-30T20:11:41.400Z,4.60
2023-01-30T20:14:10.608Z,4.70
2023-01-30T20:16:38.863Z,4.60
2023-01-30T20:19:08.886Z,4.60
2023-01-30T20:21:37.372Z,4.60
2023-01-30T20:24:06.756Z,4.60
2023-01-30T20:26:37.454Z,4.60
2023-01-30T20:29:08.445Z,4.60
2023-01-30T20:31:38.459Z,4.60
2023-01-30T20:34:09.340Z,4.70
2023-01-30T20:36:37.487Z,4.60
2023-01-30T20:39:07.619Z,4.70
2023-01-30T20:41:37.664Z,4.50
2023-01-30T20:44:09.165Z,4.50
2023-01-30T20:46:41.449Z,4.50
2023-01-30T20:49:13.346Z,4.50
2023-01-30T20:51:41.677Z,4.50
2023-01-30T20:54:11.721Z,4.40
2023-01-30T20:56:43.018Z,4.40
2023-01-30T20:59:14.962Z,4.40
2023-01-30T21:01:43.426Z,4.40
2023-01-30T21:04:13.609Z,4.50
2023-01-30T21:06:45.872Z,4.50
2023-01-30T21:09:17.307Z,4.40
2023-01-30T21:11:45.674Z,4.40
2023-01-30T21:14:16.607Z,4.40
2023-01-30T21:16:45.198Z,4.50
2023-01-30T21:19:16.566Z,4.40
2023-01-30T21:21:50.621Z,4.40
2023-01-30T21:24:21.992Z,4.40
2023-01-30T21:26:50.401Z,4.40
2023-01-30T21:29:22.679Z,4.40
2023-01-30T21:31:51.120Z,4.40
2023-01-30T21:34:19.517Z,4.30
2023-01-30T21:37:07.899Z,4.30
2023-01-30T21:39:54.142Z,4.40
2023-01-30T21:42:39.347Z,4.30
2023-01-30T21:45:10.073Z,4.10
2023-01-30T21:47:38.837Z,4.10
2023-01-30T21:50:07.936Z,4.20
2023-01-30T21:52:36.704Z,4.20
2023-01-30T21:55:05.328Z,4.30
2023-01-30T21:57:33.450Z,4.30
2023-01-30T22:00:01.593Z,4.20
2023-01-30T22:02:31.170Z,4.30
2023-01-30T22:04:59.313Z,4.30
2023-01-30T22:07:27.469Z,4.30
2023-01-30T22:09:55.734Z,4.30
2023-01-30T22:12:23.902Z,4.30
2023-01-30T22:14:52.080Z,4.30
2023-01-30T22:17:20.317Z,4.30
2023-01-30T22:19:50.132Z,4.20
2023-01-30T22:22:18.350Z,4.20
2023-01-30T22:24:46.541Z,4.10
2023-01-30T22:27:16.404Z,3.90
2023-01-30T22:29:44.583Z,3.90
2023-01-30T22:32:13.047Z,3.90
2023-01-30T22:34:41.224Z,3.80
2023-01-30T22:37:10.762Z,3.70
2023-01-30T22:39:39.463Z,3.60
2023-01-30T22:42:08.984Z,3.60
2023-01-30T22:44:37.127Z,3.50
2023-01-30T22:47:05.420Z,3.40
2023-01-30T22:49:33.596Z,3.30
2023-01-30T22:52:02.311Z,3.30
2023-01-30T22:54:31.931Z,3.30
2023-01-30T22:57:00.112Z,3.40
2023-01-30T22:59:28.250Z,3.30
2023-01-30T23:01:56.398Z,3.30
2023-01-30T23:04:25.133Z,3.30
2023-01-30T23:06:53.936Z,3.40
2023-01-30T23:09:24.069Z,3.30
2023-01-30T23:12:18.595Z,3.20
2023-01-30T23:14:46.805Z,3.20
2023-01-30T23:17:32.248Z,3.30
2023-01-30T23:20:00.513Z,3.30
2023-01-30T23:22:28.766Z,3.30
2023-01-30T23:24:56.918Z,3.40
2023-01-30T23:27:26.399Z,3.50
2023-01-30T23:29:54.641Z,3.60
2023-01-30T23:32:23.803Z,3.70
2023-01-30T23:34:52.089Z,3.60
2023-01-30T23:37:40.901Z,3.70
2023-01-30T23:40:10.587Z,3.50
2023-01-30T23:42:40.168Z,3.50
2023-01-30T23:45:09.657Z,3.30
2023-01-30T23:47:37.902Z,3.20
2023-01-30T23:50:06.623Z,3.20
2023-01-30T23:52:35.169Z,3.20
2023-01-30T23:55:03.552Z,3.30
2023-01-30T23:57:31.680Z,3.30
